Pagrindinis puslapis
METAR-TAF:

METAR-TAF

Oro uostai :

Luni

Sarzana, Italija

platuma: 44-05N, ilguma: 009-59E, Aukštis: 9 m

METAR: trūkstamas

Laikas: 21:43 (19:43 UTC)

Prognozė

Ataskaita buvo paskelbta 32 valandos ir 43 minutes, ne 11:00 UTC
Prognozė galioja nuo 29 metu 12 UTC su 29 metu 21 UTC
Vėjas 10 kt iš Pietų/Pietvakarių
Matomumas 10 km arba daugiau
Išsisklaidę debesys ne aukštis 2000 ft
Išsisklaidę debesys ne aukštis 6000 ft
Tikimybė 40% :
Laikinai
nuo 29 metu 12 UTC su 29 metu 15 UTC
Matomumas: 5000 m
Mažai debesys ne aukštis 2000 ft, Liūtiniai kamuoliniai debesys.
Su prošvaistėmis ne aukštis 3000 ft
perkūnija, lietus
Tapsmas
nuo 29 metu 19 UTC su 29 metu 21 UTC
Vėjas 5 kt nuo kintamojo kryptimis

TAF: LIQW 291100Z 2912/2921 21010KT 9999 SCT020 SCT060 PROB40 TEMPO 2912/2915 5000 TSRA FEW020CB BKN030 BECMG 2919/2921 VRB05KT

Orai ataskaitas ir orų prognozės (METAR, TAF).

turimą stotys yra geltonos ir raudonos taškus žemėlapyje.

Perkelti pele per norėdami pamatyti stoties vardą.

Tada spustelėkite, norėdami matyti oro stebėjimo ir prognozės.

Norėdami pakeisti žemėlapį: spustelėkite ant žalios mygtukų su juodo kryžiaus žemyn,; žalią mygtuką su brūkšneliu, jei norite nutolinti; arba žalių rodyklių gretimoms žemėlapius.


METAR-TAF: